Terminal Aerodrome Forecast
Issued by NWS

Home | Current Version | Previous Version | Text Only | Print | Product List | Glossary On
Versions: 1 2 3 4 5 6 7 8 9 10 11 12 13 14 15 16
319
FTUS46 KHNX 210520
TAFMER
TAF
KMER 210520Z 2106/2206 15018G27KT P6SM VCSH BKN050
     FM211500 16013G20KT P6SM -SHRA BKN040
     FM220000 34006KT P6SM -SHRA BKN040
      AMD NOT SKED=

USA.gov is the U.S. government's official web portal to all federal, state and local government web resources and services.